Time;durP1;ratioP1;P1;durP2;ratioP2;P2;SDS_P1;SDS_P2;PMS_P1;PMS_P2;Temp;Humidity;BMP_temperature;BMP_pressure;BME280_temperature;BME280_humidity;BME280_pressure;Samples;Min_cycle;Max_cycle;Signal;HPM_P1;HPM_P2
2022/03/19 00:00:28;;;;;;;13.60;6.65;;;;;;;6.27;74.21;104290.47;4979214;28;20030;-64
2022/03/19 00:02:54;;;;;;;9.85;6.07;;;;;;;6.21;74.21;104287.78;4986249;28;20041;-64
2022/03/19 00:05:19;;;;;;;13.65;6.53;;;;;;;6.17;74.28;104287.75;4984537;28;20066;-70
2022/03/19 00:07:45;;;;;;;15.10;7.78;;;;;;;6.17;74.36;104287.75;4989912;28;20474;-68
2022/03/19 00:10:10;;;;;;;11.85;6.90;;;;;;;6.14;74.77;104292.25;4986796;28;20123;-64
2022/03/19 00:12:40;;;;;;;11.13;7.28;;;;;;;6.12;74.40;104285.94;4975194;28;20042;-67
2022/03/19 00:15:07;;;;;;;13.70;7.22;;;;;;;6.10;74.15;104284.13;4987683;28;20502;-68
2022/03/19 00:17:32;;;;;;;10.77;6.72;;;;;;;6.08;74.63;104289.53;4990286;28;20069;-63
2022/03/19 00:19:59;;;;;;;10.32;7.18;;;;;;;6.08;74.91;104288.66;4984717;28;20046;-69
2022/03/19 00:22:25;;;;;;;14.20;7.40;;;;;;;6.10;74.99;104292.25;4989153;28;20045;-64
2022/03/19 00:24:50;;;;;;;17.02;7.50;;;;;;;6.08;75.03;104289.53;4980743;28;20030;-71
2022/03/19 00:27:16;;;;;;;12.80;8.85;;;;;;;6.08;74.63;104286.84;4982998;28;20034;-68
2022/03/19 00:29:43;;;;;;;15.70;8.07;;;;;;;6.06;74.98;104285.94;4981130;28;20049;-71
2022/03/19 00:32:08;;;;;;;17.67;8.70;;;;;;;6.05;75.13;104288.63;4990012;28;20030;-68
2022/03/19 00:34:34;;;;;;;18.85;7.55;;;;;;;6.04;75.00;104281.44;4983283;28;20034;-65
2022/03/19 00:36:59;;;;;;;13.73;8.02;;;;;;;6.00;74.98;104283.22;4981303;28;20066;-70
2022/03/19 00:39:25;;;;;;;15.13;7.57;;;;;;;5.99;74.53;104278.72;4990000;28;20030;-67
2022/03/19 00:41:52;;;;;;;14.18;8.40;;;;;;;5.96;75.12;104278.69;4986422;28;20043;-63
2022/03/19 00:44:21;;;;;;;17.02;8.75;;;;;;;5.95;75.29;104279.59;4972229;28;20129;-65
2022/03/19 00:46:47;;;;;;;17.83;8.98;;;;;;;5.92;75.75;104279.59;4989956;28;20022;-67
2022/03/19 00:49:14;;;;;;;13.40;8.55;;;;;;;5.91;75.68;104276.84;4986673;28;21999;-63
2022/03/19 00:51:40;;;;;;;14.38;8.93;;;;;;;5.90;75.45;104281.34;4989439;28;20112;-64
2022/03/19 00:54:07;;;;;;;18.40;9.02;;;;;;;5.86;76.08;104285.84;4989684;28;20150;-65
2022/03/19 00:56:33;;;;;;;15.70;9.25;;;;;;;5.82;76.29;104284.03;4982073;28;20034;-64
2022/03/19 00:59:00;;;;;;;14.80;9.35;;;;;;;5.79;76.11;104277.75;4978075;28;20383;-67
2022/03/19 01:01:25;;;;;;;13.77;9.52;;;;;;;5.77;76.64;104280.41;4985967;28;20652;-70
2022/03/19 01:03:51;;;;;;;14.93;9.70;;;;;;;5.72;76.79;104274.09;4984966;28;20096;-68
2022/03/19 01:06:16;;;;;;;19.42;10.48;;;;;;;5.69;76.88;104278.59;4982862;28;20068;-64
2022/03/19 01:08:41;;;;;;;14.27;9.18;;;;;;;5.68;76.76;104274.09;4986163;28;20022;-64
2022/03/19 01:11:07;;;;;;;19.52;10.13;;;;;;;5.63;77.31;104272.28;4989525;28;20104;-68
2022/03/19 01:13:32;;;;;;;15.98;9.35;;;;;;;5.59;77.45;104267.75;4986403;28;20057;-68
2022/03/19 01:15:58;;;;;;;20.95;10.07;;;;;;;5.56;77.42;104272.25;4983092;28;20482;-67
2022/03/19 01:18:24;;;;;;;14.48;9.98;;;;;;;5.50;77.58;104273.16;4984833;28;20406;-70
2022/03/19 01:20:49;;;;;;;17.58;10.73;;;;;;;5.47;77.57;104269.53;4984141;28;20038;-68
2022/03/19 01:23:14;;;;;;;15.85;11.10;;;;;;;5.43;77.24;104265.00;4979974;28;20046;-65
2022/03/19 01:25:40;;;;;;;16.73;10.57;;;;;;;5.41;77.62;104274.88;4988332;28;20018;-70
2022/03/19 01:28:06;;;;;;;19.10;11.77;;;;;;;5.40;77.95;104265.88;4985818;28;20065;-63
2022/03/19 01:30:31;;;;;;;17.45;11.43;;;;;;;5.38;78.14;104262.28;4980480;28;20390;-64
2022/03/19 01:32:57;;;;;;;21.60;11.35;;;;;;;5.34;78.34;104261.38;4989261;28;20034;-68
2022/03/19 01:35:23;;;;;;;22.48;12.77;;;;;;;5.29;78.40;104262.25;4977047;28;20053;-70
2022/03/19 01:37:49;;;;;;;17.45;10.82;;;;;;;5.22;78.57;104269.41;4987571;28;20034;-69
2022/03/19 01:40:17;;;;;;;20.95;11.70;;;;;;;5.16;78.65;104265.78;4988985;28;20038;-68
2022/03/19 01:42:49;;;;;;;18.65;11.20;;;;;;;5.14;79.14;104267.56;4979466;28;20035;-70
2022/03/19 01:45:21;;;;;;;21.77;11.80;;;;;;;5.09;79.21;104270.25;4971168;28;20031;-67
2022/03/19 01:47:50;;;;;;;20.92;11.88;;;;;;;5.05;79.37;104266.63;4987110;28;20110;-70
2022/03/19 01:50:17;;;;;;;22.80;11.60;;;;;;;5.02;79.67;104266.59;4977691;28;20035;-68
2022/03/19 01:52:43;;;;;;;25.23;12.02;;;;;;;5.04;79.73;104264.81;4985089;28;20043;-64
2022/03/19 01:55:10;;;;;;;19.65;12.75;;;;;;;5.03;79.92;104256.69;4987512;28;20039;-63
2022/03/19 01:57:40;;;;;;;20.27;13.13;;;;;;;5.04;80.71;104261.22;4986785;28;20160;-67
2022/03/19 02:00:09;;;;;;;21.80;13.25;;;;;;;5.08;80.48;104249.53;4987522;28;20443;-68
2022/03/19 02:02:38;;;;;;;23.45;13.23;;;;;;;5.05;80.48;104245.03;4988618;28;20034;-69
2022/03/19 02:05:04;;;;;;;19.40;11.85;;;;;;;5.05;80.61;104241.44;4972898;28;20038;-65
2022/03/19 02:07:31;;;;;;;23.35;12.70;;;;;;;5.03;80.69;104246.81;4982613;28;20561;-68
2022/03/19 02:09:58;;;;;;;21.58;12.68;;;;;;;5.05;81.04;104239.63;4983969;28;20046;-64
2022/03/19 02:12:24;;;;;;;21.98;13.23;;;;;;;5.09;81.09;104249.56;4975058;28;20053;-69
2022/03/19 02:14:49;;;;;;;19.98;12.50;;;;;;;5.06;81.14;104246.84;4969397;28;20054;-68
2022/03/19 02:17:15;;;;;;;24.35;14.65;;;;;;;5.07;80.93;104232.44;4979969;28;20047;-70
2022/03/19 02:19:51;;;;;;;27.05;13.18;;;;;;;5.09;80.85;104227.97;4984816;28;20034;-70
2022/03/19 02:22:19;;;;;;;21.63;12.10;;;;;;;5.08;81.59;104231.56;4988256;28;20080;-70
2022/03/19 02:27:29;;;;;;;24.33;12.63;;;;;;;5.11;81.46;104223.47;4980581;28;20038;-67
2022/03/19 02:29:56;;;;;;;24.58;12.48;;;;;;;5.08;81.50;104220.78;4983979;28;20359;-69
2022/03/19 02:32:21;;;;;;;22.05;12.90;;;;;;;5.10;81.74;104221.66;4988173;28;20046;-65
2022/03/19 02:34:47;;;;;;;20.92;12.25;;;;;;;5.12;81.71;104217.16;4981162;28;20073;-70
2022/03/19 02:37:12;;;;;;;23.35;11.98;;;;;;;5.15;81.55;104210.00;4983157;28;20046;-65
2022/03/19 02:39:38;;;;;;;19.25;12.00;;;;;;;5.09;81.37;104202.78;4987941;28;20489;-70
2022/03/19 02:42:05;;;;;;;21.88;13.05;;;;;;;5.16;82.07;104211.78;4978278;28;20552;-64
2022/03/19 02:44:31;;;;;;;25.15;13.52;;;;;;;5.17;81.81;104200.09;4974103;28;20093;-70
2022/03/19 02:46:59;;;;;;;24.50;12.77;;;;;;;5.18;81.70;104200.13;4980478;28;20042;-68
2022/03/19 02:49:25;;;;;;;22.27;12.73;;;;;;;5.15;81.66;104199.19;4985504;28;20031;-68
2022/03/19 02:51:52;;;;;;;23.65;13.30;;;;;;;5.10;82.05;104201.88;4986613;28;20038;-70
2022/03/19 02:54:20;;;;;;;24.20;12.27;;;;;;;5.08;82.08;104199.19;4985767;28;20553;-65
2022/03/19 02:56:46;;;;;;;22.42;13.98;;;;;;;5.08;82.37;104201.88;4987127;28;20390;-68
2022/03/19 02:59:28;;;;;;;26.67;12.93;;;;;;;5.09;82.24;104206.38;4981621;28;20085;-68
2022/03/19 03:01:57;;;;;;;22.45;13.10;;;;;;;5.10;81.92;104197.38;4976162;28;20384;-68
2022/03/19 03:04:23;;;;;;;21.92;11.90;;;;;;;5.10;82.58;104196.47;4981891;28;20030;-64
2022/03/19 03:06:50;;;;;;;20.08;11.82;;;;;;;5.10;82.01;104189.28;4986388;28;20128;-67
2022/03/19 03:09:19;;;;;;;24.00;13.70;;;;;;;5.07;82.35;104202.75;4980477;28;20038;-63
2022/03/19 03:11:44;;;;;;;19.08;12.15;;;;;;;5.10;82.32;104197.38;4985467;28;20019;-63
2022/03/19 03:14:10;;;;;;;29.77;13.23;;;;;;;5.12;82.42;104198.28;4976380;28;20157;-67
2022/03/19 03:16:37;;;;;;;23.45;12.65;;;;;;;5.14;82.42;104197.41;4967654;28;20508;-64
2022/03/19 03:19:05;;;;;;;21.33;11.88;;;;;;;5.10;82.66;104194.69;4973170;28;20398;-69
2022/03/19 03:21:32;;;;;;;25.52;12.43;;;;;;;5.09;83.07;104197.38;4985741;28;20034;-69
2022/03/19 03:23:58;;;;;;;19.88;11.70;;;;;;;5.09;82.86;104198.28;4985983;28;20031;-65
2022/03/19 03:26:24;;;;;;;19.23;11.98;;;;;;;5.11;82.78;104192.88;4986034;28;20438;-66
2022/03/19 03:28:49;;;;;;;22.52;12.70;;;;;;;5.11;82.97;104195.56;4981382;28;20117;-70
2022/03/19 03:31:15;;;;;;;21.35;12.50;;;;;;;5.08;83.13;104193.78;4989020;28;20084;-64
2022/03/19 03:33:40;;;;;;;25.60;11.60;;;;;;;5.08;83.07;104190.16;4984791;28;20038;-71
2022/03/19 03:36:07;;;;;;;20.58;11.85;;;;;;;5.15;82.97;104186.59;4976762;28;20105;-71
2022/03/19 03:38:35;;;;;;;21.02;11.68;;;;;;;5.12;83.12;104190.19;4989807;28;20117;-64
2022/03/19 03:41:01;;;;;;;24.60;11.05;;;;;;;5.10;82.92;104191.97;4991271;28;20026;-68
2022/03/19 03:43:26;;;;;;;19.85;11.15;;;;;;;5.07;83.40;104188.38;4980276;28;20042;-65
2022/03/19 03:45:51;;;;;;;28.30;11.50;;;;;;;5.04;83.32;104188.38;4976082;28;20121;-65
2022/03/19 03:48:17;;;;;;;19.95;11.38;;;;;;;5.03;83.45;104190.13;4991085;28;20070;-71
2022/03/19 03:50:43;;;;;;;19.73;10.95;;;;;;;5.00;83.40;104191.94;4971901;28;20042;-64
2022/03/19 03:53:08;;;;;;;24.08;10.77;;;;;;;4.95;83.62;104191.03;4990466;28;20057;-71
2022/03/19 03:55:36;;;;;;;22.90;10.00;;;;;;;4.90;83.69;104193.69;4990848;28;20038;-65
2022/03/19 03:58:03;;;;;;;24.05;11.27;;;;;;;4.86;83.58;104181.97;4987321;28;20543;-65
2022/03/19 04:00:30;;;;;;;21.73;10.82;;;;;;;4.85;83.58;104185.59;4979999;28;20117;-63
2022/03/19 04:02:55;;;;;;;21.08;10.75;;;;;;;4.87;83.95;104185.56;4987725;28;20030;-68
2022/03/19 04:05:21;;;;;;;21.27;10.68;;;;;;;4.92;84.00;104183.81;4973656;28;20471;-65
2022/03/19 04:07:46;;;;;;;20.73;10.07;;;;;;;4.98;84.02;104180.22;4974517;28;20117;-70
2022/03/19 04:10:12;;;;;;;21.10;10.65;;;;;;;5.00;83.71;104182.06;4982880;28;20501;-67
2022/03/19 04:12:38;;;;;;;21.30;11.38;;;;;;;4.99;83.29;104177.56;4981846;28;20045;-68
2022/03/19 04:15:05;;;;;;;22.25;11.63;;;;;;;4.97;83.50;104183.81;4986598;28;20214;-63
2022/03/19 04:17:31;;;;;;;22.02;10.82;;;;;;;4.98;83.68;104173.03;4990029;28;20877;-65
2022/03/19 04:19:56;;;;;;;20.27;10.18;;;;;;;4.96;83.44;104176.63;4985005;28;20018;-65
2022/03/19 04:22:22;;;;;;;24.27;11.32;;;;;;;4.91;83.61;104173.91;4985003;28;20034;-70
2022/03/19 04:24:47;;;;;;;28.20;11.88;;;;;;;4.95;83.84;104181.13;4990193;28;20045;-70
2022/03/19 04:27:14;;;;;;;21.48;10.98;;;;;;;4.92;83.57;104173.00;4980943;28;20070;-71
2022/03/19 04:29:40;;;;;;;15.18;9.40;;;;;;;4.91;83.55;104173.00;4982065;28;20126;-68
2022/03/19 04:32:07;;;;;;;20.52;11.43;;;;;;;4.86;84.03;104179.28;4988137;28;20069;-64
2022/03/19 04:34:32;;;;;;;22.88;11.27;;;;;;;4.88;83.99;104173.88;4985126;28;20097;-65
2022/03/19 04:36:58;;;;;;;20.08;10.77;;;;;;;4.89;83.94;104172.97;4978774;28;20161;-68
2022/03/19 04:39:23;;;;;;;20.38;11.20;;;;;;;4.89;83.99;104175.69;4987909;28;20034;-64
2022/03/19 04:41:49;;;;;;;23.35;11.23;;;;;;;4.89;83.61;104167.59;4986462;28;20034;-68
2022/03/19 04:44:16;;;;;;;17.92;10.95;;;;;;;4.85;83.63;104164.00;4974299;28;20065;-67
2022/03/19 04:46:42;;;;;;;24.02;10.60;;;;;;;4.82;83.97;104153.19;4979182;28;20022;-68
2022/03/19 04:49:07;;;;;;;20.85;10.85;;;;;;;4.82;84.24;104163.06;4987977;28;20041;-70
2022/03/19 04:51:36;;;;;;;21.85;10.45;;;;;;;4.82;83.85;104161.28;4972044;28;20042;-64
2022/03/19 04:54:02;;;;;;;23.17;10.85;;;;;;;4.77;83.58;104154.06;4977094;28;20050;-70
2022/03/19 04:56:29;;;;;;;20.70;11.15;;;;;;;4.79;83.80;104154.97;4989426;28;20497;-69
2022/03/19 04:58:58;;;;;;;18.45;10.48;;;;;;;4.81;83.83;104155.88;4985055;28;20813;-64
2022/03/19 05:01:28;;;;;;;21.00;10.73;;;;;;;4.83;83.31;104160.38;4987696;28;20033;-69
2022/03/19 05:03:54;;;;;;;21.65;11.07;;;;;;;4.85;83.71;104166.69;4985047;28;20129;-64
2022/03/19 05:06:21;;;;;;;19.17;11.32;;;;;;;4.80;83.49;104165.78;4985545;28;20168;-65
2022/03/19 05:08:46;;;;;;;23.67;11.27;;;;;;;4.78;83.53;104167.53;4979056;28;20042;-64
2022/03/19 05:11:16;;;;;;;21.92;11.25;;;;;;;4.75;84.05;104163.91;4983923;28;20039;-64
2022/03/19 05:13:48;;;;;;;23.10;11.35;;;;;;;4.71;83.97;104159.41;4979095;28;20527;-64
2022/03/19 05:16:18;;;;;;;24.52;11.55;;;;;;;4.72;84.18;104166.63;4987092;28;20042;-70
2022/03/19 05:18:43;;;;;;;26.50;11.75;;;;;;;4.72;84.43;104163.94;4989218;28;20438;-70
2022/03/19 05:21:12;;;;;;;20.88;10.80;;;;;;;4.66;83.67;104175.56;4983730;28;20049;-70
2022/03/19 05:23:37;;;;;;;23.30;11.07;;;;;;;4.61;84.22;104174.63;4986943;28;20366;-69
2022/03/19 05:26:03;;;;;;;25.83;11.35;;;;;;;4.56;84.43;104171.91;4988882;28;20037;-69
2022/03/19 05:28:28;;;;;;;26.45;11.07;;;;;;;4.52;84.37;104172.81;4986017;28;20046;-69
2022/03/19 05:30:54;;;;;;;21.83;11.32;;;;;;;4.55;84.38;104175.50;4985117;28;20026;-69
2022/03/19 05:34:29;;;;;;;20.83;11.45;;;;;;;4.58;84.50;104174.63;4989004;28;20327;-68
2022/03/19 05:36:05;;;;;;;22.52;10.95;;;;;;;4.59;84.51;104180.03;4976895;28;20528;-64
2022/03/19 05:38:31;;;;;;;20.75;11.63;;;;;;;4.61;84.41;104180.91;4988365;28;20038;-64
2022/03/19 05:40:56;;;;;;;19.20;12.52;;;;;;;4.62;84.59;104184.56;4989161;28;20029;-69
2022/03/19 05:43:22;;;;;;;26.73;11.88;;;;;;;4.60;84.54;104181.81;4977579;28;20126;-71
2022/03/19 05:45:47;;;;;;;19.85;11.90;;;;;;;4.63;84.62;104174.66;4973945;28;20140;-66
2022/03/19 05:48:13;;;;;;;25.05;11.38;;;;;;;4.66;84.56;104180.06;4987416;28;20275;-64
2022/03/19 05:50:38;;;;;;;18.95;10.45;;;;;;;4.67;84.48;104180.09;4975536;28;20520;-64
2022/03/19 05:53:03;;;;;;;19.92;11.40;;;;;;;4.68;84.29;104175.59;4986455;28;20088;-65
2022/03/19 05:55:29;;;;;;;22.90;11.18;;;;;;;4.72;84.43;104174.72;4987417;28;20394;-65
2022/03/19 05:57:54;;;;;;;22.27;11.50;;;;;;;4.73;84.26;104180.09;4977745;28;20478;-65
2022/03/19 06:00:19;;;;;;;19.95;10.88;;;;;;;4.80;84.14;104175.63;4976856;28;20045;-69
2022/03/19 06:02:45;;;;;;;24.23;11.80;;;;;;;4.85;83.69;104181.97;4987904;28;20082;-65
2022/03/19 06:05:10;;;;;;;17.25;10.82;;;;;;;4.88;83.88;104175.69;4980934;28;20123;-65
2022/03/19 06:07:36;;;;;;;20.58;10.95;;;;;;;4.93;83.59;104174.81;4987693;28;20482;-67
2022/03/19 06:10:02;;;;;;;21.88;11.65;;;;;;;4.95;83.68;104182.94;4987875;28;20049;-65
2022/03/19 06:12:27;;;;;;;22.13;11.18;;;;;;;4.95;83.59;104177.53;4984126;28;20023;-67
2022/03/19 06:14:53;;;;;;;20.05;10.52;;;;;;;4.97;83.82;104187.41;4963700;28;20042;-70
2022/03/19 06:17:21;;;;;;;19.00;11.55;;;;;;;5.02;83.61;104184.75;4976596;28;20037;-69
2022/03/19 06:19:47;;;;;;;26.17;11.70;;;;;;;5.01;83.61;104178.44;4983064;28;20046;-70
2022/03/19 06:22:12;;;;;;;29.45;11.55;;;;;;;5.04;83.41;104180.28;4982674;28;20046;-70
2022/03/19 06:24:38;;;;;;;20.33;10.80;;;;;;;5.09;83.10;104178.50;4982621;28;20034;-64
2022/03/19 06:27:04;;;;;;;19.17;11.68;;;;;;;5.08;83.61;104180.28;4978469;28;20262;-70
2022/03/19 06:29:30;;;;;;;24.63;11.30;;;;;;;5.10;83.31;104188.38;4978060;28;20113;-65
2022/03/19 06:31:57;;;;;;;21.73;11.18;;;;;;;5.11;83.44;104182.97;4980195;28;20034;-69
2022/03/19 06:34:22;;;;;;;28.23;11.45;;;;;;;5.16;83.26;104188.41;4978673;28;20038;-64
2022/03/19 06:39:31;;;;;;;20.27;9.95;;;;;;;6.02;80.27;104184.13;4984474;28;20420;-65
2022/03/19 06:41:57;;;;;;;24.70;10.98;;;;;;;6.26;79.50;104182.31;4984382;28;20038;-71
2022/03/19 06:44:22;;;;;;;25.85;11.40;;;;;;;6.42;78.20;104184.09;4980585;28;20027;-65
2022/03/19 06:46:48;;;;;;;22.55;10.63;;;;;;;6.39;78.55;104193.13;4984374;28;20088;-69
2022/03/19 06:49:13;;;;;;;18.65;10.27;;;;;;;6.35;78.65;104185.94;4990208;28;20072;-64
2022/03/19 06:51:39;;;;;;;20.73;11.10;;;;;;;6.56;78.13;104182.25;4982829;28;20494;-70
2022/03/19 06:54:04;;;;;;;22.65;11.18;;;;;;;6.52;77.75;104187.69;4984211;28;20413;-70
2022/03/19 06:56:29;;;;;;;21.83;9.85;;;;;;;6.37;78.35;104191.31;4982837;28;20034;-64
2022/03/19 06:58:55;;;;;;;21.20;11.25;;;;;;;6.26;78.74;104187.75;4986721;28;20508;-65
2022/03/19 07:01:20;;;;;;;18.25;9.95;;;;;;;6.27;79.16;104184.13;4986616;28;20471;-65
2022/03/19 07:03:47;;;;;;;20.60;10.93;;;;;;;6.70;78.01;104186.75;4987820;28;20026;-70
2022/03/19 07:06:13;;;;;;;18.85;10.00;;;;;;;6.86;76.77;104189.44;4987246;28;20026;-64
2022/03/19 07:08:39;;;;;;;23.27;11.00;;;;;;;6.80;76.77;104188.53;4987753;28;20037;-70
2022/03/19 07:11:04;;;;;;;19.10;9.75;;;;;;;6.96;76.17;104184.88;4988841;28;20038;-71
2022/03/19 07:13:31;;;;;;;17.85;10.50;;;;;;;7.26;75.70;104178.41;4987127;28;20019;-68
2022/03/19 07:15:56;;;;;;;15.60;9.95;;;;;;;7.67;73.88;104183.59;4989023;28;20042;-71
2022/03/19 07:18:22;;;;;;;17.75;9.02;;;;;;;8.25;72.77;104189.47;4984833;28;20489;-70
2022/03/19 07:20:50;;;;;;;19.40;9.35;;;;;;;8.87;69.73;104182.56;4974961;28;20443;-69
2022/03/19 07:23:15;;;;;;;16.13;8.95;;;;;;;9.08;69.38;104178.66;4991239;28;20393;-66
2022/03/19 07:25:41;;;;;;;17.05;8.82;;;;;;;9.23;68.51;104183.00;4988122;28;20046;-69
2022/03/19 07:28:09;;;;;;;19.45;9.15;;;;;;;9.20;68.51;104183.94;4987335;28;20038;-66
2022/03/19 07:30:35;;;;;;;14.40;9.15;;;;;;;9.02;68.97;104186.91;4974597;28;20043;-66
2022/03/19 07:33:01;;;;;;;21.30;9.70;;;;;;;9.61;67.48;104182.47;4991137;28;20395;-68
2022/03/19 07:35:27;;;;;;;19.52;8.48;;;;;;;9.58;67.13;104182.50;4980329;28;20042;-65
2022/03/19 07:37:53;;;;;;;21.48;9.60;;;;;;;9.59;67.18;104178.88;4987415;28;20112;-69
2022/03/19 07:43:08;;;;;;;23.10;9.45;;;;;;;10.41;64.42;104179.38;4970082;28;20066;-70
2022/03/19 07:45:34;;;;;;;19.98;8.60;;;;;;;10.53;63.84;104172.78;4995335;28;20038;-66
2022/03/19 07:48:01;;;;;;;17.92;8.35;;;;;;;10.33;64.30;104174.06;4990907;28;20544;-70
2022/03/19 07:50:26;;;;;;;19.73;10.20;;;;;;;10.15;64.70;104172.53;4987156;28;20049;-66
2022/03/19 07:52:52;;;;;;;20.38;8.15;;;;;;;10.11;65.08;104169.88;5005907;28;20037;-65
2022/03/19 07:55:18;;;;;;;21.35;9.23;;;;;;;9.93;65.57;104177.44;5007038;28;20380;-70
2022/03/19 07:57:43;;;;;;;16.23;8.95;;;;;;;9.74;67.36;104167.75;4996632;28;20025;-71
2022/03/19 08:00:09;;;;;;;20.35;8.90;;;;;;;9.54;68.06;104169.88;4991257;28;20046;-65
2022/03/19 08:02:41;;;;;;;15.27;8.40;;;;;;;9.31;68.01;104173.81;4987678;28;20038;-65
2022/03/19 08:05:08;;;;;;;16.27;8.35;;;;;;;9.10;68.34;104166.88;4984519;28;20064;-65
2022/03/19 08:07:34;;;;;;;15.80;8.45;;;;;;;9.00;69.13;104172.41;4975960;28;20068;-68
2022/03/19 08:10:00;;;;;;;17.17;8.45;;;;;;;8.90;69.31;104161.66;5000857;28;20026;-70
2022/03/19 08:12:25;;;;;;;18.30;8.93;;;;;;;8.89;69.05;104159.88;4999519;28;22018;-71
2022/03/19 08:14:51;;;;;;;17.20;8.43;;;;;;;8.94;69.45;104163.44;4995277;28;20059;-65
2022/03/19 08:17:17;;;;;;;14.82;8.10;;;;;;;9.04;69.84;104168.75;4993764;28;20719;-70
2022/03/19 08:19:42;;;;;;;15.32;7.90;;;;;;;9.17;69.58;104165.84;4984764;28;20033;-70
2022/03/19 08:22:09;;;;;;;14.05;7.28;;;;;;;9.22;68.51;104168.50;4980846;28;20069;-64
2022/03/19 08:24:35;;;;;;;13.05;7.88;;;;;;;9.13;68.17;104172.25;4989962;28;20041;-64
2022/03/19 08:27:01;;;;;;;18.17;8.88;;;;;;;9.17;69.72;104173.13;4988777;28;20118;-71
2022/03/19 08:29:27;;;;;;;18.35;7.75;;;;;;;9.23;68.35;104172.13;4979590;28;20474;-66
2022/03/19 08:31:53;;;;;;;13.23;7.05;;;;;;;9.19;67.16;104168.56;5003015;28;20054;-68
2022/03/19 08:34:18;;;;;;;16.70;7.88;;;;;;;9.25;67.76;104173.03;4991089;28;20038;-70
2022/03/19 08:36:43;;;;;;;12.85;8.13;;;;;;;9.24;67.52;104174.84;4981734;28;20042;-70
2022/03/19 08:41:53;;;;;;;12.07;6.32;;;;;;;9.19;66.67;104176.72;4986823;28;20125;-70
2022/03/19 08:44:19;;;;;;;10.15;6.40;;;;;;;9.19;67.20;104169.47;4982560;28;20136;-65
2022/03/19 08:46:44;;;;;;;15.35;6.20;;;;;;;9.23;67.27;104172.13;4989349;28;20054;-69
2022/03/19 08:49:10;;;;;;;14.60;8.02;;;;;;;9.33;66.70;104168.38;4987584;28;20030;-67
2022/03/19 08:51:41;;;;;;;13.60;6.70;;;;;;;9.37;65.77;104168.31;4975034;28;20042;-70
2022/03/19 08:54:11;;;;;;;14.15;7.38;;;;;;;9.43;66.22;104160.06;4989389;28;20037;-65
2022/03/19 08:56:37;;;;;;;16.05;7.45;;;;;;;9.49;64.51;104160.91;4989616;28;20034;-69
2022/03/19 08:59:03;;;;;;;13.30;8.38;;;;;;;9.47;66.77;104160.03;4976212;28;20028;-65
2022/03/19 09:01:29;;;;;;;14.45;7.53;;;;;;;9.60;66.78;104161.63;4983232;28;20084;-65
2022/03/19 09:03:54;;;;;;;14.90;7.88;;;;;;;9.88;64.97;104163.00;4974670;28;20042;-70
2022/03/19 09:06:20;;;;;;;18.08;8.30;;;;;;;9.91;63.91;104159.34;4994641;28;20029;-69
2022/03/19 09:08:46;;;;;;;13.02;7.53;;;;;;;9.80;64.58;104162.25;4986986;28;20049;-64
2022/03/19 09:11:12;;;;;;;14.90;7.53;;;;;;;9.71;64.59;104159.66;4991439;28;20030;-69
2022/03/19 09:13:39;;;;;;;21.70;9.10;;;;;;;9.61;64.15;104152.59;4983721;28;20034;-69
2022/03/19 09:16:05;;;;;;;20.50;9.07;;;;;;;9.62;64.16;104155.25;4987659;28;20049;-63
2022/03/19 09:18:31;;;;;;;17.25;7.63;;;;;;;9.61;64.41;104149.88;4988104;28;20034;-68
2022/03/19 09:20:57;;;;;;;18.02;7.72;;;;;;;9.67;64.99;104147.94;4981965;28;20053;-69
2022/03/19 09:23:22;;;;;;;15.38;8.70;;;;;;;9.79;64.56;104146.84;4988000;28;20494;-69
2022/03/19 09:25:48;;;;;;;12.60;6.93;;;;;;;9.87;64.30;104141.28;4987338;28;20037;-64
2022/03/19 09:28:13;;;;;;;18.17;7.03;;;;;;;9.90;63.64;104142.13;4982050;28;20109;-66
2022/03/19 09:30:39;;;;;;;16.48;8.40;;;;;;;10.00;64.76;104133.81;4981601;28;20181;-64
2022/03/19 09:33:04;;;;;;;12.95;6.90;;;;;;;10.11;64.08;104145.38;4986937;28;20096;-71
2022/03/19 09:35:29;;;;;;;14.35;6.45;;;;;;;10.28;64.20;104143.31;4979169;28;20085;-68
2022/03/19 09:37:55;;;;;;;13.30;5.63;;;;;;;10.35;62.34;104138.63;4982060;28;20034;-70
2022/03/19 09:40:20;;;;;;;12.18;5.78;;;;;;;10.40;61.19;104143.09;4988217;28;20101;-72
2022/03/19 09:42:52;;;;;;;16.70;6.07;;;;;;;10.53;62.52;104127.41;4980124;28;20038;-69
2022/03/19 09:45:19;;;;;;;16.73;6.97;;;;;;;10.57;61.94;104128.25;4977059;28;20042;-64
2022/03/19 09:47:45;;;;;;;16.15;6.20;;;;;;;10.50;60.21;104127.47;4979098;28;20046;-71
2022/03/19 09:50:11;;;;;;;17.02;5.22;;;;;;;10.38;59.24;104120.44;4982662;28;20026;-70
2022/03/19 09:52:37;;;;;;;12.07;5.47;;;;;;;10.39;60.00;104124.94;4981510;28;20172;-65
2022/03/19 09:55:03;;;;;;;10.25;5.50;;;;;;;10.43;58.77;104132.13;4986295;28;20499;-64
2022/03/19 09:57:29;;;;;;;10.07;4.57;;;;;;;10.38;59.00;104117.72;4985477;28;20036;-72
2022/03/19 09:59:54;;;;;;;8.25;4.40;;;;;;;10.39;60.71;104121.31;4983807;28;20034;-64
2022/03/19 10:02:20;;;;;;;11.80;5.13;;;;;;;10.41;59.29;104123.09;4988115;28;20402;-69
2022/03/19 10:04:45;;;;;;;10.95;5.25;;;;;;;10.38;58.88;104112.28;4980564;28;20381;-65
2022/03/19 10:09:56;;;;;;;13.30;4.55;;;;;;;10.57;57.45;104107.34;4983376;28;20042;-64
2022/03/19 10:12:25;;;;;;;14.10;4.85;;;;;;;10.59;57.47;104094.63;4988114;28;20031;-70
2022/03/19 10:14:55;;;;;;;13.45;5.15;;;;;;;10.71;57.54;104097.06;4982600;28;20053;-71
2022/03/19 10:17:39;;;;;;;14.95;4.90;;;;;;;10.94;56.71;104088.41;4988521;28;20513;-64
2022/03/19 10:20:07;;;;;;;9.80;5.07;;;;;;;10.96;52.97;104081.13;4975102;28;20098;-70
2022/03/19 10:22:34;;;;;;;8.20;3.97;;;;;;;11.06;55.18;104086.38;4977008;28;20719;-71
2022/03/19 10:25:08;;;;;;;12.80;4.18;;;;;;;11.19;52.63;104083.34;4983764;28;20034;-64
2022/03/19 10:27:36;;;;;;;11.93;4.10;;;;;;;11.24;51.76;104067.75;4984937;28;20042;-64
2022/03/19 10:30:07;;;;;;;12.38;4.47;;;;;;;11.37;52.50;104062.00;4984180;28;20501;-68
2022/03/19 10:32:33;;;;;;;11.88;4.07;;;;;;;11.58;52.82;104060.59;4992934;28;20037;-70
2022/03/19 10:34:59;;;;;;;15.38;5.30;;;;;;;11.52;49.95;104064.38;4988098;28;20061;-69
2022/03/19 10:37:41;;;;;;;11.73;4.53;;;;;;;11.45;51.73;104063.63;4993869;28;20046;-70
2022/03/19 10:40:08;;;;;;;9.80;4.43;;;;;;;11.45;49.08;104052.72;4992804;28;20494;-66
2022/03/19 10:42:42;;;;;;;11.27;4.15;;;;;;;11.47;50.74;104044.47;4988470;28;20035;-64
2022/03/19 10:45:09;;;;;;;12.05;3.92;;;;;;;11.64;49.70;104049.53;4980599;28;20153;-63
2022/03/19 10:47:40;;;;;;;13.02;4.07;;;;;;;11.67;47.91;104041.28;4990898;28;20042;-70
2022/03/19 10:50:05;;;;;;;9.85;4.20;;;;;;;11.76;46.76;104041.03;4977335;28;20041;-69
2022/03/19 10:52:33;;;;;;;10.55;4.65;;;;;;;11.85;45.53;104031.75;4992354;28;20035;-72
2022/03/19 10:55:03;;;;;;;6.50;2.88;;;;;;;11.91;43.55;104027.00;4994263;28;20025;-64
2022/03/19 10:57:29;;;;;;;7.30;3.28;;;;;;;11.99;46.40;104022.25;4988003;28;20482;-67
2022/03/19 10:59:54;;;;;;;9.32;3.00;;;;;;;12.09;42.20;104016.53;4989674;28;20030;-64
2022/03/19 11:02:20;;;;;;;5.47;2.45;;;;;;;12.18;42.89;104019.00;4993902;28;20113;-69
2022/03/19 11:04:47;;;;;;;9.50;3.28;;;;;;;12.36;44.53;104020.31;4990179;28;20035;-68
2022/03/19 11:07:13;;;;;;;5.82;2.72;;;;;;;12.59;40.81;104008.69;4992654;28;20045;-72
2022/03/19 11:09:39;;;;;;;5.78;3.75;;;;;;;12.78;40.64;104007.22;4993884;28;20069;-70
2022/03/19 11:12:07;;;;;;;8.60;2.88;;;;;;;12.76;37.67;104006.34;4988557;28;20615;-70
2022/03/19 11:14:36;;;;;;;10.88;3.03;;;;;;;12.85;38.97;104007.88;4986965;28;20081;-64
2022/03/19 11:17:25;;;;;;;7.72;2.70;;;;;;;12.81;36.18;103998.00;4988911;28;20034;-63
2022/03/19 11:19:52;;;;;;;5.05;2.45;;;;;;;12.75;34.49;103994.53;4990042;28;20042;-70
2022/03/19 11:22:18;;;;;;;3.50;1.83;;;;;;;12.71;33.87;103979.16;4977809;28;20563;-69
2022/03/19 11:25:04;;;;;;;5.78;2.30;;;;;;;12.63;32.75;103986.69;4993605;28;20465;-63
2022/03/19 11:27:36;;;;;;;9.30;2.83;;;;;;;12.58;33.29;103976.84;4984029;28;20108;-63
2022/03/19 11:30:04;;;;;;;6.30;1.93;;;;;;;12.61;31.37;103964.00;4982567;28;20662;-64